createdAt,value
2023-02-11T00:00:48.779Z,100415.73
2023-02-11T00:03:27.064Z,100411.79
2023-02-11T00:06:16.393Z,100409.77
2023-02-11T00:09:05.530Z,100405.29
2023-02-11T00:11:54.280Z,100408.69
2023-02-11T00:14:42.955Z,100406.45
2023-02-11T00:17:32.402Z,100397.81
2023-02-11T00:20:07.903Z,100402.79
2023-02-11T00:22:56.852Z,100397.64
2023-02-11T00:25:46.039Z,100389.04
2023-02-11T00:28:34.708Z,100381.47
2023-02-11T00:31:24.355Z,100380.56
2023-02-11T00:34:13.819Z,100379.38
2023-02-11T00:37:02.725Z,100371.92
2023-02-11T00:39:51.367Z,100365.44
2023-02-11T00:42:40.321Z,100369.17
2023-02-11T00:45:30.029Z,100371.99
2023-02-11T00:48:18.735Z,100366.62
2023-02-11T00:51:07.724Z,100350.86
2023-02-11T00:53:56.299Z,100349.30
2023-02-11T00:56:44.916Z,100341.16
2023-02-11T00:59:33.494Z,100334.79
2023-02-11T01:02:22.166Z,100323.73
2023-02-11T01:05:11.233Z,100314.00
2023-02-11T01:07:59.877Z,100299.98
2023-02-11T01:10:55.682Z,100308.11
2023-02-11T01:13:44.895Z,100291.04
2023-02-11T01:16:16.424Z,100274.07
2023-02-11T01:19:05.132Z,100259.60
2023-02-11T01:21:53.771Z,100262.86
2023-02-11T01:24:42.362Z,100270.80
2023-02-11T01:27:31.013Z,100267.70
2023-02-11T01:30:19.760Z,100286.15
2023-02-11T01:33:08.429Z,100290.48
2023-02-11T01:36:02.335Z,100289.68
2023-02-11T01:38:50.949Z,100278.48
2023-02-11T01:41:39.937Z,100281.14
2023-02-11T01:44:30.377Z,100277.88
2023-02-11T01:47:19.635Z,100270.84
2023-02-11T01:50:08.587Z,100262.41
2023-02-11T01:53:18.513Z,100266.72
2023-02-11T01:56:26.300Z,100259.05
2023-02-11T01:59:20.352Z,100257.14
2023-02-11T02:02:10.601Z,100264.69
2023-02-11T02:05:06.785Z,100257.67
2023-02-11T02:08:05.180Z,100254.89
2023-02-11T02:10:55.776Z,100259.59
2023-02-11T02:13:35.760Z,100257.25
2023-02-11T02:16:30.364Z,100240.76
2023-02-11T02:20:21.945Z,100223.09
2023-02-11T02:23:35.264Z,100220.23
2023-02-11T02:26:59.265Z,100217.95
2023-02-11T02:30:22.578Z,100202.27
2023-02-11T02:33:45.460Z,100192.79
2023-02-11T02:36:44.161Z,100193.98
2023-02-11T02:39:36.067Z,100189.17
2023-02-11T02:42:26.320Z,100183.34
2023-02-11T02:45:00.458Z,100173.46
2023-02-11T02:47:49.205Z,100162.42
2023-02-11T02:50:38.502Z,100146.33
2023-02-11T02:53:40.244Z,100137.88
2023-02-11T02:56:32.010Z,100134.71
2023-02-11T02:59:35.477Z,100129.61
2023-02-11T03:02:31.698Z,100123.68
2023-02-11T03:05:30.341Z,100128.14
2023-02-11T03:08:26.633Z,100126.37
2023-02-11T03:11:19.076Z,100113.46
2023-02-11T03:14:10.969Z,100122.14
2023-02-11T03:16:48.713Z,100125.64
2023-02-11T03:19:26.623Z,100131.33
2023-02-11T03:22:20.825Z,100131.66
2023-02-11T03:25:10.012Z,100133.30
2023-02-11T03:27:43.890Z,100126.39
2023-02-11T03:30:35.199Z,100120.20
2023-02-11T03:33:28.538Z,100116.95
2023-02-11T03:36:23.686Z,100115.59
2023-02-11T03:39:15.828Z,100105.45
2023-02-11T03:42:06.819Z,100111.10
2023-02-11T03:45:03.710Z,100104.17
2023-02-11T03:47:56.434Z,100100.60
2023-02-11T03:50:47.089Z,100089.36
2023-02-11T03:53:38.483Z,100080.94
2023-02-11T03:56:31.709Z,100067.64
2023-02-11T03:59:20.795Z,100062.09
2023-02-11T04:02:09.602Z,100047.44
2023-02-11T04:04:58.814Z,100042.95
2023-02-11T04:07:47.429Z,100031.02
2023-02-11T04:10:36.059Z,100022.48
2023-02-11T04:13:26.371Z,100019.93
2023-02-11T04:16:15.053Z,100015.23
2023-02-11T04:19:03.903Z,100013.98
2023-02-11T04:21:52.512Z,100008.95
2023-02-11T04:24:43.272Z,100000.65
2023-02-11T04:27:32.428Z,100001.20
2023-02-11T04:30:21.585Z,100004.30
2023-02-11T04:33:10.276Z,100002.05
2023-02-11T04:35:58.947Z,100004.86
2023-02-11T04:38:47.746Z,100018.47
2023-02-11T04:41:36.408Z,100026.98
2023-02-11T04:44:25.322Z,100023.57
2023-02-11T04:47:15.062Z,100016.89
2023-02-11T04:50:03.921Z,100016.64
2023-02-11T04:52:52.584Z,100010.65
2023-02-11T04:55:41.204Z,100001.98
2023-02-11T04:58:30.092Z,100006.77
2023-02-11T05:01:18.853Z,100007.67
2023-02-11T05:04:07.627Z,99998.33
2023-02-11T05:06:58.576Z,99999.23
2023-02-11T05:09:47.318Z,99993.42
2023-02-11T05:12:35.900Z,99996.56
2023-02-11T05:15:24.584Z,99996.20
2023-02-11T05:18:14.214Z,99996.34
2023-02-11T05:21:07.809Z,99995.70
2023-02-11T05:23:56.553Z,99994.00
2023-02-11T05:26:45.118Z,100003.95
2023-02-11T05:29:33.716Z,100009.89
2023-02-11T05:32:22.313Z,100015.29
2023-02-11T05:35:10.913Z,100017.98
2023-02-11T05:37:59.555Z,100011.90
2023-02-11T05:40:48.173Z,100017.20
2023-02-11T05:43:37.261Z,100011.20
2023-02-11T05:46:25.899Z,100003.21
2023-02-11T05:49:15.740Z,99983.98
2023-02-11T05:52:04.924Z,99966.30
2023-02-11T05:54:53.568Z,99958.96
2023-02-11T05:57:42.206Z,99965.73
2023-02-11T06:00:30.921Z,99963.67
2023-02-11T06:03:03.560Z,99960.28
2023-02-11T06:05:52.430Z,99956.19
2023-02-11T06:08:42.257Z,99942.94
2023-02-11T06:11:30.878Z,99935.47
2023-02-11T06:14:19.626Z,99942.02
2023-02-11T06:17:08.266Z,99952.09
2023-02-11T06:19:56.948Z,99953.91
2023-02-11T06:22:45.772Z,99944.27
2023-02-11T06:25:34.449Z,99938.73
2023-02-11T06:28:23.197Z,99923.84
2023-02-11T06:31:07.246Z,99914.92
2023-02-11T06:33:55.948Z,99909.83
2023-02-11T06:36:24.596Z,99910.00
2023-02-11T06:39:13.907Z,99916.37
2023-02-11T06:41:42.294Z,99912.73
2023-02-11T06:44:31.299Z,99918.73
2023-02-11T06:47:20.017Z,99920.00
2023-02-11T06:49:57.456Z,99927.21
2023-02-11T06:52:46.174Z,99930.68
2023-02-11T06:55:36.018Z,99931.65
2023-02-11T06:58:24.700Z,99936.33
2023-02-11T07:00:53.309Z,99938.05
2023-02-11T07:03:44.386Z,99938.71
2023-02-11T07:06:33.357Z,99936.27
2023-02-11T07:09:10.962Z,99938.83
2023-02-11T07:11:59.830Z,99928.11
2023-02-11T07:14:37.388Z,99927.17
2023-02-11T07:17:26.527Z,99929.41
2023-02-11T07:20:16.344Z,99929.27
2023-02-11T07:23:05.165Z,99932.59
2023-02-11T07:25:53.851Z,99934.65
2023-02-11T07:28:31.843Z,99933.14
2023-02-11T07:31:22.891Z,99931.77
2023-02-11T07:34:11.590Z,99931.34
2023-02-11T07:37:00.629Z,99929.41
2023-02-11T07:39:49.380Z,99925.14
2023-02-11T07:42:39.946Z,99914.20
2023-02-11T07:45:28.552Z,99911.58
2023-02-11T07:48:17.234Z,99906.92
2023-02-11T07:51:10.982Z,99901.77
2023-02-11T07:54:00.952Z,99891.86
2023-02-11T07:56:49.596Z,99875.73
2023-02-11T07:59:38.293Z,99878.14
2023-02-11T08:02:27.250Z,99883.69
2023-02-11T08:05:00.928Z,99883.54
2023-02-11T08:07:53.094Z,99886.24
2023-02-11T08:10:41.736Z,99883.73
2023-02-11T08:13:30.407Z,99886.42
2023-02-11T08:16:20.570Z,99884.85
2023-02-11T08:18:50.282Z,99886.30
2023-02-11T08:21:39.868Z,99890.67
2023-02-11T08:24:28.508Z,99898.30
2023-02-11T08:27:17.213Z,99904.10
2023-02-11T08:30:08.252Z,99898.08
2023-02-11T08:32:56.869Z,99897.27
2023-02-11T08:35:45.503Z,99890.10
2023-02-11T08:38:34.143Z,99890.47
2023-02-11T08:41:22.921Z,99891.55
2023-02-11T08:44:12.340Z,99889.70
2023-02-11T08:47:00.935Z,99885.69
2023-02-11T08:49:49.511Z,99884.09
2023-02-11T08:52:38.112Z,99888.41
2023-02-11T08:55:26.740Z,99885.74
2023-02-11T08:58:16.990Z,99883.18
2023-02-11T09:01:11.877Z,99876.37
2023-02-11T09:04:00.777Z,99877.86
2023-02-11T09:06:49.376Z,99890.90
2023-02-11T09:09:37.998Z,99896.19
2023-02-11T09:12:26.647Z,99899.77
2023-02-11T09:15:15.260Z,99903.38
2023-02-11T09:18:05.053Z,99894.83
2023-02-11T09:20:53.774Z,99904.14
2023-02-11T09:23:44.131Z,99901.10
2023-02-11T09:26:34.312Z,99904.80
2023-02-11T09:29:23.227Z,99908.65
2023-02-11T09:32:12.015Z,99913.44
2023-02-11T09:35:00.741Z,99918.17
2023-02-11T09:37:49.346Z,99930.76
2023-02-11T09:40:43.545Z,99929.83
2023-02-11T09:43:36.108Z,99914.23
2023-02-11T09:46:27.129Z,99908.31
2023-02-11T09:49:21.563Z,99895.52
2023-02-11T09:52:23.218Z,99893.67
2023-02-11T09:55:20.922Z,99889.95
2023-02-11T09:58:14.141Z,99892.70
2023-02-11T10:01:13.903Z,99889.73
2023-02-11T10:04:07.107Z,99884.73
2023-02-11T10:07:01.372Z,99887.60
2023-02-11T10:09:57.258Z,99880.48
2023-02-11T10:13:00.808Z,99879.13
2023-02-11T10:15:57.488Z,99869.67
2023-02-11T10:19:21.936Z,99867.95
2023-02-11T10:22:19.144Z,99850.45
2023-02-11T10:25:20.146Z,99842.38
2023-02-11T10:28:14.665Z,99831.93
2023-02-11T10:31:07.972Z,99813.15
2023-02-11T10:34:02.480Z,99795.41
2023-02-11T10:36:33.581Z,99785.46
2023-02-11T10:39:23.832Z,99776.66
2023-02-11T10:42:14.330Z,99764.61
2023-02-11T10:45:00.187Z,99745.59
2023-02-11T10:47:48.932Z,99729.45
2023-02-11T10:50:37.689Z,99723.27
2023-02-11T10:53:26.472Z,99715.45
2023-02-11T10:56:24.165Z,99718.80
2023-02-11T10:59:21.678Z,99719.34
2023-02-11T11:02:23.058Z,99719.58
2023-02-11T11:05:19.642Z,99743.48
2023-02-11T11:08:09.329Z,99749.37
2023-02-11T11:10:43.160Z,99746.41
2023-02-11T11:13:33.840Z,99740.98
2023-02-11T11:16:25.325Z,99739.52
2023-02-11T11:19:22.244Z,99751.35
2023-02-11T11:22:21.773Z,99751.20
2023-02-11T11:25:23.604Z,99752.31
2023-02-11T11:28:22.237Z,99756.48
2023-02-11T11:31:17.360Z,99743.09
2023-02-11T11:34:20.543Z,99751.21
2023-02-11T11:37:13.454Z,99748.29
2023-02-11T11:40:11.072Z,99744.19
2023-02-11T11:43:21.316Z,99742.77
2023-02-11T11:46:30.075Z,99735.85
2023-02-11T11:49:27.701Z,99730.91
2023-02-11T11:52:26.225Z,99734.98
2023-02-11T11:55:20.586Z,99741.10
2023-02-11T11:58:15.522Z,99750.57
2023-02-11T12:01:21.230Z,99757.77
2023-02-11T12:04:40.203Z,99754.86
2023-02-11T12:07:46.010Z,99754.83
2023-02-11T12:10:54.700Z,99745.70
2023-02-11T12:14:00.536Z,99739.90
2023-02-11T12:16:58.324Z,99749.67
2023-02-11T12:20:17.406Z,99754.75
2023-02-11T12:23:24.236Z,99752.95
2023-02-11T12:26:17.540Z,99743.92
2023-02-11T12:29:15.673Z,99739.48
2023-02-11T12:32:15.442Z,99738.98
2023-02-11T12:35:06.748Z,99738.52
2023-02-11T12:38:19.667Z,99729.10
2023-02-11T12:41:42.673Z,99714.80
2023-02-11T12:44:40.509Z,99700.52
2023-02-11T12:47:41.236Z,99677.04
2023-02-11T12:50:29.733Z,99673.98
2023-02-11T12:53:31.243Z,99682.26
2023-02-11T12:56:26.510Z,99666.41
2023-02-11T12:59:02.924Z,99671.52
2023-02-11T13:01:53.609Z,99683.77
2023-02-11T13:04:49.813Z,99694.27
2023-02-11T13:07:43.560Z,99698.09
2023-02-11T13:10:35.880Z,99690.64
2023-02-11T13:13:30.099Z,99678.08
2023-02-11T13:16:22.407Z,99675.86
2023-02-11T13:19:21.481Z,99668.56
2023-02-11T13:22:17.199Z,99664.23
2023-02-11T13:25:16.903Z,99663.34
2023-02-11T13:28:20.204Z,99653.38
2023-02-11T13:31:12.270Z,99639.38
2023-02-11T13:34:01.149Z,99603.51
2023-02-11T13:36:56.616Z,99581.17
2023-02-11T13:39:57.031Z,99585.66
2023-02-11T13:42:51.718Z,99579.13
2023-02-11T13:45:47.048Z,99586.73
2023-02-11T13:48:38.291Z,99598.83
2023-02-11T13:51:39.030Z,99603.42
2023-02-11T13:54:23.342Z,99610.21
2023-02-11T13:57:37.563Z,99610.67
2023-02-11T14:00:52.382Z,99624.89
2023-02-11T14:04:37.358Z,99639.61
2023-02-11T14:07:47.594Z,99646.89
2023-02-11T14:10:54.120Z,99648.66
2023-02-11T14:13:27.298Z,99650.08
2023-02-11T14:16:31.654Z,99656.67
2023-02-11T14:19:32.043Z,99664.07
2023-02-11T14:22:26.312Z,99671.93
2023-02-11T14:25:22.659Z,99674.61
2023-02-11T14:28:22.356Z,99669.30
2023-02-11T14:31:03.391Z,99668.17
2023-02-11T14:34:17.230Z,99673.04
2023-02-11T14:37:22.339Z,99678.46
2023-02-11T14:40:23.054Z,99680.61
2023-02-11T14:43:09.426Z,99680.77
2023-02-11T14:46:07.413Z,99668.16
2023-02-11T14:49:02.156Z,99665.77
2023-02-11T14:51:53.754Z,99661.45
2023-02-11T14:54:44.700Z,99668.42
2023-02-11T14:57:33.476Z,99671.26
2023-02-11T15:00:23.597Z,99676.75
2023-02-11T15:03:26.716Z,99685.61
2023-02-11T15:06:19.741Z,99682.35
2023-02-11T15:09:17.763Z,99682.13
2023-02-11T15:12:17.315Z,99690.55
2023-02-11T15:15:12.387Z,99696.57
2023-02-11T15:18:04.414Z,99688.09
2023-02-11T15:20:53.946Z,99692.63
2023-02-11T15:24:01.579Z,99689.96
2023-02-11T15:26:30.489Z,99692.92
2023-02-11T15:29:19.172Z,99697.61
2023-02-11T15:32:14.746Z,99705.73
2023-02-11T15:35:04.769Z,99709.41
2023-02-11T15:37:53.755Z,99719.11
2023-02-11T15:40:53.688Z,99714.31
2023-02-11T15:43:22.633Z,99710.45
2023-02-11T15:46:16.173Z,99711.58
2023-02-11T15:49:05.808Z,99712.98
2023-02-11T15:51:56.856Z,99715.37
2023-02-11T15:54:47.894Z,99716.80
2023-02-11T15:57:36.737Z,99725.89
2023-02-11T16:00:31.851Z,99731.84
2023-02-11T16:03:00.558Z,99723.36
2023-02-11T16:05:49.416Z,99729.98
2023-02-11T16:08:32.164Z,99728.21
2023-02-11T16:11:26.322Z,99728.76
2023-02-11T16:14:01.642Z,99724.02
2023-02-11T16:16:53.695Z,99724.07
2023-02-11T16:19:46.006Z,99715.70
2023-02-11T16:22:37.510Z,99719.81
2023-02-11T16:25:26.384Z,99718.83
2023-02-11T16:28:17.139Z,99723.77
2023-02-11T16:30:51.265Z,99723.87
2023-02-11T16:33:20.655Z,99728.98
2023-02-11T16:36:13.577Z,99737.98
2023-02-11T16:38:47.469Z,99744.58
2023-02-11T16:41:36.630Z,99749.19
2023-02-11T16:44:25.483Z,99747.58
2023-02-11T16:47:20.268Z,99747.25
2023-02-11T16:50:11.989Z,99738.58
2023-02-11T16:53:01.685Z,99743.23
2023-02-11T16:55:34.929Z,99749.63
2023-02-11T16:58:23.759Z,99745.16
2023-02-11T17:01:14.094Z,99744.31
2023-02-11T17:04:03.262Z,99751.04
2023-02-11T17:06:41.793Z,99749.79
2023-02-11T17:09:20.002Z,99755.45
2023-02-11T17:12:08.942Z,99745.36
2023-02-11T17:14:41.582Z,99743.83
2023-02-11T17:17:30.447Z,99746.10
2023-02-11T17:20:02.235Z,99752.23
2023-02-11T17:22:30.855Z,99761.02
2023-02-11T17:25:19.756Z,99762.09
2023-02-11T17:28:09.580Z,99761.77
2023-02-11T17:30:58.535Z,99752.36
2023-02-11T17:33:37.790Z,99755.55
2023-02-11T17:36:27.166Z,99766.10
2023-02-11T17:39:16.019Z,99762.06
2023-02-11T17:42:05.767Z,99759.61
2023-02-11T17:44:34.701Z,99754.31
2023-02-11T17:47:23.455Z,99763.02
2023-02-11T17:50:12.459Z,99760.63
2023-02-11T17:53:01.388Z,99759.95
2023-02-11T17:55:50.694Z,99766.88
2023-02-11T17:58:19.462Z,99766.42
2023-02-11T18:01:08.273Z,99768.10
2023-02-11T18:03:57.136Z,99761.96
2023-02-11T18:06:46.367Z,99762.80
2023-02-11T18:09:38.541Z,99768.23
2023-02-11T18:12:27.507Z,99765.76
2023-02-11T18:15:16.817Z,99768.95
2023-02-11T18:17:45.412Z,99771.45
2023-02-11T18:20:14.567Z,99766.02
2023-02-11T18:22:43.544Z,99765.18
2023-02-11T18:25:14.653Z,99764.63
2023-02-11T18:27:46.176Z,99766.84
2023-02-11T18:30:20.031Z,99765.24
2023-02-11T18:32:52.555Z,99765.87
2023-02-11T18:35:29.933Z,99773.82
2023-02-11T18:38:04.264Z,99778.77
2023-02-11T18:40:45.922Z,99777.14
2023-02-11T18:43:34.614Z,99779.25
2023-02-11T18:46:23.224Z,99779.28
2023-02-11T18:49:12.602Z,99784.29
2023-02-11T18:52:01.347Z,99788.14
2023-02-11T18:54:51.869Z,99785.85
2023-02-11T18:57:40.723Z,99782.49
2023-02-11T19:00:30.414Z,99781.30
2023-02-11T19:03:19.393Z,99791.38
2023-02-11T19:06:14.963Z,99792.00
2023-02-11T19:09:07.198Z,99794.73
2023-02-11T19:11:57.381Z,99799.34
2023-02-11T19:14:46.362Z,99801.55
2023-02-11T19:17:20.096Z,99802.90
2023-02-11T19:20:10.732Z,99803.48
2023-02-11T19:22:59.864Z,99806.08
2023-02-11T19:25:48.769Z,99813.83
2023-02-11T19:28:39.552Z,99810.31
2023-02-11T19:31:31.790Z,99812.82
2023-02-11T19:34:21.684Z,99814.80
2023-02-11T19:37:12.065Z,99819.45
2023-02-11T19:40:00.698Z,99816.17
2023-02-11T19:42:49.300Z,99821.38
2023-02-11T19:45:38.448Z,99822.52
2023-02-11T19:48:27.427Z,99825.80
2023-02-11T19:51:17.649Z,99827.83
2023-02-11T19:54:07.785Z,99829.98
2023-02-11T19:56:56.781Z,99827.55
2023-02-11T19:59:45.372Z,99824.41
2023-02-11T20:02:34.244Z,99829.88
2023-02-11T20:05:23.207Z,99818.07
2023-02-11T20:08:11.828Z,99817.77
2023-02-11T20:11:06.987Z,99818.94
2023-02-11T20:13:43.614Z,99818.12
2023-02-11T20:16:16.033Z,99822.75
2023-02-11T20:18:49.210Z,99823.80
2023-02-11T20:21:38.704Z,99819.86
2023-02-11T20:24:27.607Z,99821.02
2023-02-11T20:27:19.056Z,99820.67
2023-02-11T20:30:11.267Z,99819.98
2023-02-11T20:33:00.180Z,99822.77
2023-02-11T20:35:55.954Z,99821.47
2023-02-11T20:38:47.520Z,99827.94
2023-02-11T20:41:32.059Z,99831.20
2023-02-11T20:44:21.861Z,99837.94
2023-02-11T20:47:11.612Z,99836.26
2023-02-11T20:50:00.362Z,99839.40
2023-02-11T20:52:48.922Z,99840.31
2023-02-11T20:55:39.003Z,99841.43
2023-02-11T20:58:27.596Z,99844.06
2023-02-11T21:01:19.842Z,99845.30
2023-02-11T21:04:12.170Z,99843.98
2023-02-11T21:07:02.125Z,99843.17
2023-02-11T21:09:50.726Z,99845.74
2023-02-11T21:12:39.353Z,99852.84
2023-02-11T21:15:28.146Z,99851.48
2023-02-11T21:18:17.019Z,99856.66
2023-02-11T21:21:07.111Z,99861.88
2023-02-11T21:23:44.632Z,99864.67
2023-02-11T21:26:34.653Z,99868.04
2023-02-11T21:29:23.368Z,99867.13
2023-02-11T21:32:12.051Z,99870.10
2023-02-11T21:35:02.402Z,99869.66
2023-02-11T21:37:51.168Z,99876.86
2023-02-11T21:40:40.015Z,99875.90
2023-02-11T21:43:28.622Z,99884.63
2023-02-11T21:46:19.098Z,99888.63
2023-02-11T21:49:07.986Z,99899.73
2023-02-11T21:51:56.631Z,99902.73
2023-02-11T21:54:34.505Z,99907.56
2023-02-11T21:57:23.382Z,99912.27
2023-02-11T22:00:15.555Z,99908.84
2023-02-11T22:03:04.649Z,99912.45
2023-02-11T22:05:43.627Z,99914.05
2023-02-11T22:08:32.264Z,99913.27
2023-02-11T22:11:21.498Z,99914.89
2023-02-11T22:14:10.058Z,99913.96
2023-02-11T22:16:50.140Z,99917.05
2023-02-11T22:19:38.966Z,99917.96
2023-02-11T22:22:28.531Z,99919.05
2023-02-11T22:25:17.729Z,99923.39
2023-02-11T22:28:06.387Z,99933.50
2023-02-11T22:30:56.002Z,99938.11
2023-02-11T22:33:28.326Z,99935.20
2023-02-11T22:36:19.774Z,99940.08
2023-02-11T22:39:11.746Z,99939.73
2023-02-11T22:42:00.391Z,99946.62
2023-02-11T22:44:49.029Z,99951.41
2023-02-11T22:47:38.235Z,99954.05
2023-02-11T22:50:26.944Z,99959.08
2023-02-11T22:53:15.594Z,99959.14
2023-02-11T22:56:06.682Z,99967.45
2023-02-11T22:58:58.488Z,99970.44
2023-02-11T23:01:47.941Z,99970.77
2023-02-11T23:04:36.614Z,99975.15
2023-02-11T23:07:25.279Z,99977.76
2023-02-11T23:10:13.791Z,99974.52
2023-02-11T23:13:03.241Z,99980.59
2023-02-11T23:15:51.844Z,99980.08
2023-02-11T23:18:42.029Z,99983.80
2023-02-11T23:21:22.943Z,99984.80
2023-02-11T23:24:14.056Z,99986.18
2023-02-11T23:27:02.920Z,99981.10
2023-02-11T23:29:54.907Z,99984.92
2023-02-11T23:32:43.510Z,99987.24
2023-02-11T23:35:32.104Z,99992.35
2023-02-11T23:38:20.797Z,99993.42
2023-02-11T23:41:10.163Z,99993.91
2023-02-11T23:43:58.868Z,99995.14
2023-02-11T23:46:47.434Z,99996.45
2023-02-11T23:49:36.072Z,99994.42
2023-02-11T23:52:24.696Z,99991.30
2023-02-11T23:55:13.278Z,99999.38
2023-02-11T23:58:01.845Z,99998.30
